Time;durP1;ratioP1;P1;durP2;ratioP2;P2;SDS_P1;SDS_P2;PMS_P1;PMS_P2;Temp;Humidity;BMP_temperature;BMP_pressure;BME280_temperature;BME280_humidity;BME280_pressure;Samples;Min_cycle;Max_cycle;Signal;HPM_P1;HPM_P2
2020/12/30 13:56:30;;;;;;;4.88;3.58;;;;;;;14.45;47.08;96480.69;10679359;27;20375;-76
2020/12/30 14:15:16;;;;;;;6.43;4.00;;;;;;;8.04;52.18;96491.88;12137452;23;20029;31
2020/12/30 14:34:15;;;;;;;5.18;3.47;;;;;;;6.37;53.39;96508.91;10829523;23;20070;-75
2020/12/30 14:39:37;;;;;;;6.00;3.80;;;;;;;5.88;54.12;96514.03;10179518;29;20155;-79
2020/12/30 14:45:01;;;;;;;5.57;3.78;;;;;;;5.42;53.49;96517.97;10167493;29;20068;-75
2020/12/30 14:50:21;;;;;;;5.20;3.58;;;;;;;5.23;54.36;96523.56;10196563;29;20450;-75
2020/12/30 14:55:41;;;;;;;6.75;3.65;;;;;;;4.84;55.45;96528.50;10197347;29;20074;-75
2020/12/30 15:01:02;;;;;;;4.13;2.90;;;;;;;4.49;56.60;96537.13;10235907;28;20446;-80
2020/12/30 15:12:32;;;;;;;6.03;3.33;;;;;;;3.92;56.83;96552.38;11770869;23;20456;-77
2020/12/30 15:18:32;;;;;;;6.50;3.97;;;;;;;3.67;57.19;96554.66;10618688;23;20071;-79
2020/12/30 15:23:51;;;;;;;6.80;3.85;;;;;;;3.46;56.33;96552.38;10123547;29;20064;-78
2020/12/30 15:29:20;;;;;;;7.28;4.63;;;;;;;3.28;57.94;96565.53;10151103;29;20475;-79
2020/12/30 15:34:46;;;;;;;10.70;4.93;;;;;;;3.14;57.43;96562.41;10148520;29;20061;-78
2020/12/30 15:40:06;;;;;;;7.88;5.35;;;;;;;3.08;57.23;96566.72;10819210;23;20059;-78
2020/12/30 15:45:26;;;;;;;8.43;5.28;;;;;;;3.02;57.60;96571.78;10181592;29;20060;-79
2020/12/30 15:50:52;;;;;;;9.63;5.32;;;;;;;2.92;57.86;96573.78;10235810;29;20063;-81
2020/12/30 16:10:24;;;;;;;8.70;6.00;;;;;;;2.57;60.69;96591.06;12388277;23;20061;31
2020/12/30 16:16:33;;;;;;;9.98;6.32;;;;;;;2.47;59.95;96604.06;10079866;29;20048;-81
2020/12/30 16:28:10;;;;;;;10.27;6.47;;;;;;;2.32;62.88;96606.97;10407589;23;20062;-78
2020/12/30 16:33:44;;;;;;;10.53;6.50;;;;;;;2.23;62.66;96602.84;10208948;29;20056;-78
2020/12/30 16:39:21;;;;;;;12.52;8.07;;;;;;;2.10;63.65;96616.19;10140423;29;20800;-77
2020/12/30 16:44:43;;;;;;;12.45;8.23;;;;;;;1.98;63.23;96626.94;11236964;23;20056;-82
2020/12/30 16:50:33;;;;;;;12.32;7.82;;;;;;;1.85;64.51;96616.97;10100269;29;20056;-78
2020/12/30 16:55:54;;;;;;;13.73;8.23;;;;;;;1.79;64.76;96616.44;10149125;29;20064;-77
2020/12/30 17:01:16;;;;;;;15.27;8.73;;;;;;;1.77;64.16;96618.31;11541539;23;20064;-78
2020/12/30 17:06:41;;;;;;;15.43;9.30;;;;;;;1.71;65.01;96622.00;10192471;29;20068;-76
2020/12/30 17:12:00;;;;;;;14.43;9.45;;;;;;;1.68;66.30;96623.13;10216397;29;20106;-76
2020/12/30 17:17:20;;;;;;;17.08;10.15;;;;;;;1.61;66.78;96628.69;10218333;29;20059;-77
2020/12/30 17:22:40;;;;;;;19.20;10.63;;;;;;;1.53;66.01;96641.75;10202100;29;20059;-77
2020/12/30 17:28:00;;;;;;;15.43;9.68;;;;;;;1.51;65.86;96652.59;10215574;29;20134;-77
2020/12/30 17:33:20;;;;;;;18.13;11.02;;;;;;;1.43;67.72;96653.38;10201179;29;20098;-77
2020/12/30 17:38:39;;;;;;;15.07;10.70;;;;;;;1.40;66.48;96667.53;10203754;29;20066;-79
2020/12/30 17:44:01;;;;;;;18.67;11.43;;;;;;;1.30;68.57;96663.91;10203497;29;20063;-76
2020/12/30 17:49:20;;;;;;;14.15;9.48;;;;;;;1.29;67.50;96676.94;10215227;29;20066;-76
2020/12/30 17:54:40;;;;;;;15.20;9.38;;;;;;;1.28;68.26;96675.47;10215746;29;20064;-78
2020/12/30 18:00:00;;;;;;;12.95;8.38;;;;;;;1.29;68.63;96687.94;10238945;28;20059;-78
2020/12/30 18:05:26;;;;;;;14.70;9.48;;;;;;;1.32;69.02;96703.31;10227784;29;20423;-80
2020/12/30 18:10:57;;;;;;;11.77;7.63;;;;;;;1.27;67.84;96704.25;10225974;29;20063;-77
2020/12/30 18:16:18;;;;;;;13.45;8.55;;;;;;;1.24;68.16;96708.09;10237440;28;20047;-81
2020/12/30 18:27:29;;;;;;;12.10;7.55;;;;;;;1.27;68.47;96720.75;8306696;27;20074;-78
2020/12/30 18:32:52;;;;;;;11.32;7.50;;;;;;;1.29;67.80;96717.44;10157520;29;20048;-81
2020/12/30 18:38:21;;;;;;;10.60;7.28;;;;;;;1.25;67.60;96720.56;10186682;29;20064;-79
2020/12/30 18:50:24;;;;;;;11.65;7.05;;;;;;;1.27;68.78;96700.78;10497535;23;20068;-80
2020/12/30 19:21:03;;;;;;;12.20;7.32;;;;;;;1.26;68.58;96715.81;10569441;23;20063;-78
2020/12/30 19:26:23;;;;;;;11.13;7.72;;;;;;;1.19;68.71;96706.31;10129036;29;20056;-80
2020/12/30 19:31:43;;;;;;;12.18;7.15;;;;;;;1.14;69.10;96715.47;10128045;29;20423;-78
2020/12/30 19:37:03;;;;;;;12.55;7.97;;;;;;;1.10;69.32;96721.38;10141972;29;20068;-78
2020/12/30 19:42:23;;;;;;;12.27;8.88;;;;;;;1.06;68.66;96721.03;10154249;29;20061;-76
2020/12/30 19:48:01;;;;;;;11.18;7.15;;;;;;;1.09;68.90;96735.66;10514696;23;20104;-77
2020/12/30 19:53:20;;;;;;;10.30;7.32;;;;;;;1.09;68.75;96738.41;10157944;29;20071;-74
2020/12/30 19:58:43;;;;;;;11.43;7.60;;;;;;;1.10;69.17;96737.84;10180132;29;20526;-75
2020/12/30 20:04:03;;;;;;;10.88;7.65;;;;;;;1.12;69.45;96735.28;10165488;29;20060;-73
2020/12/30 20:09:24;;;;;;;10.65;7.07;;;;;;;1.16;68.99;96743.16;10179990;29;20084;-77
2020/12/30 20:14:45;;;;;;;8.80;6.18;;;;;;;1.14;69.33;96748.47;10165431;29;20064;-74
2020/12/30 20:26:23;;;;;;;12.82;7.90;;;;;;;0.98;69.22;96753.28;10138055;29;20067;-75
2020/12/30 20:31:43;;;;;;;11.65;7.60;;;;;;;0.88;70.68;96754.44;10138361;29;20065;-73
2020/12/30 20:37:07;;;;;;;12.85;7.97;;;;;;;0.80;70.04;96751.69;10139725;29;20060;-74
2020/12/30 20:42:26;;;;;;;12.57;8.40;;;;;;;0.75;69.89;96755.34;10138112;29;20064;-73
2020/12/30 20:47:47;;;;;;;11.68;7.70;;;;;;;0.74;69.99;96762.13;10151158;29;20057;-73
2020/12/30 20:53:10;;;;;;;13.65;8.25;;;;;;;0.70;70.01;96756.28;10143072;29;20116;-79
2020/12/30 20:58:29;;;;;;;13.23;8.02;;;;;;;0.71;70.56;96760.50;10139220;29;20064;-79
2020/12/30 21:03:49;;;;;;;14.85;8.77;;;;;;;0.72;70.20;96770.94;10164479;29;20527;-79
2020/12/30 21:09:09;;;;;;;12.68;8.20;;;;;;;0.74;70.24;96786.84;10178267;29;20076;-79
2020/12/30 21:14:29;;;;;;;12.68;7.82;;;;;;;0.76;70.33;96774.03;10151322;29;20060;-79
2020/12/30 21:19:49;;;;;;;14.73;9.30;;;;;;;0.73;70.07;96788.13;10153432;29;20071;-79
2020/12/30 21:25:11;;;;;;;24.88;15.93;;;;;;;0.90;69.88;96793.06;10165933;29;20079;-79
2020/12/30 21:55:53;;;;;;;10.95;7.20;;;;;;;1.71;70.78;96800.84;11401310;23;20121;-79
2020/12/30 22:01:14;;;;;;;10.82;6.72;;;;;;;1.82;70.84;96799.69;10200057;29;20063;-79
2020/12/30 22:06:34;;;;;;;10.85;6.78;;;;;;;1.87;70.47;96804.25;10183250;29;20071;-79
2020/12/30 22:11:56;;;;;;;11.70;7.10;;;;;;;2.02;70.36;96797.91;10194472;29;20064;-81
2020/12/30 22:17:18;;;;;;;12.02;8.05;;;;;;;2.03;69.98;96796.66;10189179;29;20060;-80
2020/12/30 22:22:39;;;;;;;12.80;8.32;;;;;;;1.99;70.62;96791.50;10178346;29;20553;-80
2020/12/30 22:28:03;;;;;;;12.70;8.05;;;;;;;1.97;70.37;96790.63;10205559;29;20064;-79
2020/12/30 22:33:24;;;;;;;13.75;7.55;;;;;;;1.95;70.16;96790.47;10205120;29;20075;-79
2020/12/30 22:38:44;;;;;;;11.65;7.55;;;;;;;1.96;70.94;96789.16;10203016;29;20083;-80
2020/12/30 22:44:04;;;;;;;12.07;6.65;;;;;;;1.95;70.84;96796.69;10204711;29;20129;-80
2020/12/30 22:49:27;;;;;;;10.15;6.15;;;;;;;2.03;70.45;96787.63;10203739;29;20071;-79
2020/12/30 22:54:49;;;;;;;11.05;6.55;;;;;;;2.05;70.20;96796.09;10202784;29;20467;-79
2020/12/30 23:00:10;;;;;;;8.73;6.55;;;;;;;2.07;70.33;96796.25;10176058;29;20118;-79
2020/12/30 23:05:30;;;;;;;10.50;6.88;;;;;;;2.05;70.99;96788.56;10203181;29;20123;-80
2020/12/30 23:10:50;;;;;;;11.40;6.15;;;;;;;2.00;70.78;96776.47;10205425;29;20088;-80
2020/12/30 23:16:12;;;;;;;10.30;6.60;;;;;;;1.91;71.12;96774.31;10203382;29;20068;-79
2020/12/30 23:21:34;;;;;;;10.85;6.43;;;;;;;1.70;71.49;96774.63;10190876;29;20060;-80
2020/12/30 23:26:58;;;;;;;10.25;5.65;;;;;;;1.52;72.58;96775.06;10206235;29;20166;-80
2020/12/30 23:32:22;;;;;;;10.13;5.93;;;;;;;1.39;71.35;96779.53;10207388;29;20063;-80
2020/12/30 23:37:45;;;;;;;9.35;6.43;;;;;;;1.29;72.29;96781.41;10208299;29;20083;-80
2020/12/30 23:43:08;;;;;;;9.95;5.57;;;;;;;1.21;72.40;96775.19;10193811;29;20059;-80
2020/12/30 23:48:29;;;;;;;9.93;6.43;;;;;;;1.11;72.86;96780.53;10206173;29;20055;-80
2020/12/30 23:53:49;;;;;;;11.40;7.18;;;;;;;1.12;72.41;96775.78;10193354;29;20064;-80
2020/12/30 23:59:10;;;;;;;11.45;6.97;;;;;;;1.20;72.79;96771.00;10179530;29;20068;-80
